sensor_id;sensor_type;location;lat;lon;timestamp;P1;durP1;ratioP1;P2;durP2;ratioP2
37157;SDS011;23050;51.776;22.638;2022-10-29T20:12:08;8.35;;;3.95;;
37157;SDS011;23050;51.776;22.638;2022-10-29T20:14:33;6.35;;;2.63;;
37157;SDS011;23050;51.776;22.638;2022-10-29T20:17:00;8.57;;;2.42;;
37157;SDS011;23050;51.776;22.638;2022-10-29T20:19:27;6.90;;;5.72;;
37157;SDS011;23050;51.776;22.638;2022-10-29T20:21:53;90.97;;;41.55;;
37157;SDS011;23050;51.776;22.638;2022-10-29T20:24:18;173.68;;;75.05;;
37157;SDS011;23050;51.776;22.638;2022-10-29T20:26:44;104.95;;;56.83;;
37157;SDS011;23050;51.776;22.638;2022-10-29T20:29:10;60.80;;;28.38;;
37157;SDS011;23050;51.776;22.638;2022-10-29T20:31:36;28.48;;;12.43;;
37157;SDS011;23050;51.776;22.638;2022-10-29T20:34:03;64.18;;;24.15;;
37157;SDS011;23050;51.776;22.638;2022-10-29T20:36:29;15.50;;;9.52;;
37157;SDS011;23050;51.776;22.638;2022-10-29T20:38:57;70.78;;;19.58;;
37157;SDS011;23050;51.776;22.638;2022-10-29T20:41:23;23.88;;;16.05;;
37157;SDS011;23050;51.776;22.638;2022-10-29T20:43:52;17.33;;;12.18;;
37157;SDS011;23050;51.776;22.638;2022-10-29T20:46:20;9.30;;;6.30;;
37157;SDS011;23050;51.776;22.638;2022-10-29T20:48:46;60.65;;;30.75;;
37157;SDS011;23050;51.776;22.638;2022-10-29T20:51:12;74.68;;;28.55;;
37157;SDS011;23050;51.776;22.638;2022-10-29T20:53:38;54.13;;;24.70;;
37157;SDS011;23050;51.776;22.638;2022-10-29T20:56:04;22.48;;;12.43;;
37157;SDS011;23050;51.776;22.638;2022-10-29T20:58:30;34.55;;;17.38;;
37157;SDS011;23050;51.776;22.638;2022-10-29T21:01:09;37.28;;;7.45;;
37157;SDS011;23050;51.776;22.638;2022-10-29T21:03:39;17.52;;;11.77;;
37157;SDS011;23050;51.776;22.638;2022-10-29T21:06:07;18.90;;;12.13;;
37157;SDS011;23050;51.776;22.638;2022-10-29T21:08:33;53.10;;;25.25;;
37157;SDS011;23050;51.776;22.638;2022-10-29T21:10:59;67.38;;;30.50;;
37157;SDS011;23050;51.776;22.638;2022-10-29T21:13:27;26.30;;;18.30;;
37157;SDS011;23050;51.776;22.638;2022-10-29T21:15:54;5.18;;;4.68;;
37157;SDS011;23050;51.776;22.638;2022-10-29T21:18:20;7.35;;;5.00;;
37157;SDS011;23050;51.776;22.638;2022-10-29T21:20:45;54.63;;;26.05;;
37157;SDS011;23050;51.776;22.638;2022-10-29T21:23:11;46.50;;;22.95;;
37157;SDS011;23050;51.776;22.638;2022-10-29T21:25:37;22.45;;;10.93;;
37157;SDS011;23050;51.776;22.638;2022-10-29T21:28:03;101.50;;;38.20;;
37157;SDS011;23050;51.776;22.638;2022-10-29T21:30:28;39.13;;;28.27;;
37157;SDS011;23050;51.776;22.638;2022-10-29T21:32:54;77.05;;;33.20;;
37157;SDS011;23050;51.776;22.638;2022-10-29T21:35:19;21.95;;;10.90;;
37157;SDS011;23050;51.776;22.638;2022-10-29T21:37:45;42.28;;;19.92;;
37157;SDS011;23050;51.776;22.638;2022-10-29T21:40:11;36.80;;;20.20;;
37157;SDS011;23050;51.776;22.638;2022-10-29T21:42:37;23.48;;;10.20;;
37157;SDS011;23050;51.776;22.638;2022-10-29T21:45:03;23.35;;;10.90;;
37157;SDS011;23050;51.776;22.638;2022-10-29T21:47:29;24.15;;;14.65;;
37157;SDS011;23050;51.776;22.638;2022-10-29T21:49:55;26.33;;;11.52;;
37157;SDS011;23050;51.776;22.638;2022-10-29T21:52:20;30.52;;;14.90;;
37157;SDS011;23050;51.776;22.638;2022-10-29T21:54:46;68.55;;;28.83;;
37157;SDS011;23050;51.776;22.638;2022-10-29T21:57:11;22.63;;;13.43;;
37157;SDS011;23050;51.776;22.638;2022-10-29T21:59:37;23.27;;;12.52;;
37157;SDS011;23050;51.776;22.638;2022-10-29T22:02:02;30.85;;;19.25;;
37157;SDS011;23050;51.776;22.638;2022-10-29T22:04:28;18.85;;;9.30;;
37157;SDS011;23050;51.776;22.638;2022-10-29T22:06:54;37.13;;;16.38;;
37157;SDS011;23050;51.776;22.638;2022-10-29T22:09:20;24.10;;;13.57;;
37157;SDS011;23050;51.776;22.638;2022-10-29T22:11:46;8.88;;;6.28;;
37157;SDS011;23050;51.776;22.638;2022-10-29T22:14:11;12.73;;;8.55;;
37157;SDS011;23050;51.776;22.638;2022-10-29T22:16:37;20.35;;;6.95;;
37157;SDS011;23050;51.776;22.638;2022-10-29T22:19:03;13.80;;;12.18;;
37157;SDS011;23050;51.776;22.638;2022-10-29T22:21:28;12.98;;;6.55;;
37157;SDS011;23050;51.776;22.638;2022-10-29T22:23:56;7.85;;;4.60;;
37157;SDS011;23050;51.776;22.638;2022-10-29T22:26:24;2.70;;;2.38;;
37157;SDS011;23050;51.776;22.638;2022-10-29T22:28:51;4.30;;;3.83;;
37157;SDS011;23050;51.776;22.638;2022-10-29T22:31:17;7.60;;;3.88;;
37157;SDS011;23050;51.776;22.638;2022-10-29T22:33:45;2.75;;;2.55;;
37157;SDS011;23050;51.776;22.638;2022-10-29T22:36:12;2.00;;;1.90;;
37157;SDS011;23050;51.776;22.638;2022-10-29T22:38:40;5.60;;;3.13;;
37157;SDS011;23050;51.776;22.638;2022-10-29T22:41:09;3.72;;;1.63;;
37157;SDS011;23050;51.776;22.638;2022-10-29T22:43:37;1.77;;;1.67;;
37157;SDS011;23050;51.776;22.638;2022-10-29T22:46:03;3.95;;;1.95;;
37157;SDS011;23050;51.776;22.638;2022-10-29T22:48:30;15.65;;;2.78;;
37157;SDS011;23050;51.776;22.638;2022-10-29T22:51:03;1.77;;;1.67;;
37157;SDS011;23050;51.776;22.638;2022-10-29T22:53:30;2.60;;;2.38;;
37157;SDS011;23050;51.776;22.638;2022-10-29T22:55:56;3.05;;;2.78;;
37157;SDS011;23050;51.776;22.638;2022-10-29T22:58:22;1.25;;;1.15;;
37157;SDS011;23050;51.776;22.638;2022-10-29T23:00:47;2.28;;;1.77;;
37157;SDS011;23050;51.776;22.638;2022-10-29T23:03:13;2.63;;;2.42;;
37157;SDS011;23050;51.776;22.638;2022-10-29T23:05:38;5.60;;;4.45;;
37157;SDS011;23050;51.776;22.638;2022-10-29T23:08:04;3.75;;;2.13;;
37157;SDS011;23050;51.776;22.638;2022-10-29T23:10:30;4.60;;;2.85;;
37157;SDS011;23050;51.776;22.638;2022-10-29T23:12:55;4.68;;;2.90;;
37157;SDS011;23050;51.776;22.638;2022-10-29T23:15:21;2.17;;;1.85;;
37157;SDS011;23050;51.776;22.638;2022-10-29T23:17:46;11.82;;;3.83;;
37157;SDS011;23050;51.776;22.638;2022-10-29T23:20:16;3.95;;;3.40;;
37157;SDS011;23050;51.776;22.638;2022-10-29T23:22:41;3.40;;;2.85;;
37157;SDS011;23050;51.776;22.638;2022-10-29T23:25:07;6.30;;;2.72;;
37157;SDS011;23050;51.776;22.638;2022-10-29T23:27:33;2.03;;;1.75;;
37157;SDS011;23050;51.776;22.638;2022-10-29T23:29:58;3.78;;;2.75;;
37157;SDS011;23050;51.776;22.638;2022-10-29T23:32:24;26.13;;;11.95;;
37157;SDS011;23050;51.776;22.638;2022-10-29T23:34:49;7.72;;;4.18;;
37157;SDS011;23050;51.776;22.638;2022-10-29T23:37:15;2.83;;;2.15;;
37157;SDS011;23050;51.776;22.638;2022-10-29T23:39:40;3.65;;;2.30;;
37157;SDS011;23050;51.776;22.638;2022-10-29T23:42:06;3.25;;;2.95;;
37157;SDS011;23050;51.776;22.638;2022-10-29T23:44:31;5.30;;;1.50;;
37157;SDS011;23050;51.776;22.638;2022-10-29T23:46:57;4.32;;;2.65;;
37157;SDS011;23050;51.776;22.638;2022-10-29T23:49:23;2.47;;;2.28;;
37157;SDS011;23050;51.776;22.638;2022-10-29T23:51:48;1.52;;;1.42;;
37157;SDS011;23050;51.776;22.638;2022-10-29T23:54:14;2.28;;;2.08;;
37157;SDS011;23050;51.776;22.638;2022-10-29T23:56:39;1.88;;;1.77;;
